Time;durP1;ratioP1;P1;durP2;ratioP2;P2;SDS_P1;SDS_P2;PMS_P1;PMS_P2;Temp;Humidity;BMP_temperature;BMP_pressure;BME280_temperature;BME280_humidity;BME280_pressure;Samples;Min_cycle;Max_cycle;Signal;HPM_P1;HPM_P2
2021/06/12 00:00:30;;;;;;;6.53;5.85;;;17.90;79.20;;;17.60;63.94;95142.59;5059144;28;20300;-85
2021/06/12 00:02:59;;;;;;;6.95;6.32;;;17.90;79.20;;;17.56;64.61;95137.97;5046507;28;20208;-86
2021/06/12 00:05:26;;;;;;;6.90;6.30;;;17.90;79.30;;;17.53;64.13;95139.22;5027611;28;20208;-85
2021/06/12 00:07:53;;;;;;;6.85;6.25;;;17.80;79.40;;;17.56;64.63;95145.91;5055486;28;20214;-86
2021/06/12 00:10:36;;;;;;;6.70;6.10;;;17.80;79.40;;;17.50;64.37;95144.97;5032476;28;20211;-85
2021/06/12 00:13:04;;;;;;;6.95;6.25;;;17.70;79.50;;;17.48;64.73;95141.78;4930622;28;20221;-88
2021/06/12 00:17:56;;;;;;;6.82;6.13;;;17.80;79.50;;;17.43;64.65;95129.19;5135192;27;20410;-85
2021/06/12 00:20:28;;;;;;;7.45;6.78;;;17.70;79.40;;;17.44;64.47;95136.13;5070162;28;20210;-85
2021/06/12 00:22:56;;;;;;;7.05;6.35;;;17.70;79.50;;;17.42;64.98;95140.03;5067989;28;20205;-86
2021/06/12 00:25:25;;;;;;;7.03;6.43;;;17.60;79.60;;;17.40;64.65;95139.44;5055543;28;20205;-85
2021/06/12 00:27:56;;;;;;;7.10;6.50;;;17.60;79.60;;;17.35;64.68;95137.47;5046747;28;20221;-85
2021/06/12 00:30:25;;;;;;;7.03;6.40;;;17.60;79.70;;;17.38;64.67;95137.03;5035235;28;20212;-85
2021/06/12 00:32:53;;;;;;;7.35;6.63;;;17.60;79.90;;;17.38;64.88;95142.34;4945701;28;20217;-85
2021/06/12 00:35:37;;;;;;;7.20;6.50;;;17.60;79.80;;;17.36;64.72;95136.44;5137502;27;20655;-85
2021/06/12 00:38:04;;;;;;;6.90;6.30;;;17.60;80.00;;;17.37;64.82;95138.06;5084520;27;20215;-86
2021/06/12 00:40:32;;;;;;;7.80;7.10;;;17.60;80.00;;;17.33;65.12;95136.88;5081147;28;20666;-86
2021/06/12 00:42:58;;;;;;;7.53;6.82;;;17.60;80.00;;;17.33;64.85;95134.25;5058536;28;20659;-86
2021/06/12 00:45:30;;;;;;;7.18;6.55;;;17.50;80.00;;;17.31;64.98;95131.03;5059513;28;20293;-85
2021/06/12 00:47:58;;;;;;;7.35;6.38;;;17.60;80.00;;;17.31;64.96;95127.56;4961778;28;20215;-86
2021/06/12 00:50:29;;;;;;;8.18;7.40;;;17.50;80.00;;;17.26;65.50;95129.06;4913396;28;20670;-85
2021/06/12 00:55:35;;;;;;;7.78;7.07;;;17.60;80.00;;;17.25;65.25;95135.41;5151415;27;20905;-86
2021/06/12 00:58:03;;;;;;;7.88;7.18;;;17.50;80.00;;;17.23;65.34;95136.66;5091772;28;20219;-86
2021/06/12 01:00:30;;;;;;;7.97;7.15;;;17.50;80.00;;;17.23;65.34;95137.44;5084689;28;20295;-86
2021/06/12 01:02:57;;;;;;;7.60;6.90;;;17.50;79.90;;;17.20;65.49;95131.78;5049877;28;20656;-85
2021/06/12 01:05:24;;;;;;;7.60;6.80;;;17.50;79.90;;;17.22;65.29;95135.03;5014371;28;20251;-85
2021/06/12 01:07:52;;;;;;;7.32;6.63;;;17.50;80.00;;;17.19;65.65;95140.81;4991814;28;20241;-85
2021/06/12 01:10:20;;;;;;;7.65;6.90;;;17.40;79.90;;;17.18;65.55;95139.19;4821317;29;20298;-85
2021/06/12 01:15:38;;;;;;;7.55;6.85;;;17.40;79.90;;;17.18;65.26;95129.38;5151270;27;20631;-85
2021/06/12 01:18:14;;;;;;;8.23;7.28;;;17.40;79.90;;;17.20;65.14;95134.44;5093108;27;20214;-85
2021/06/12 01:20:58;;;;;;;7.65;6.95;;;17.40;79.90;;;17.20;65.19;95131.78;5032835;28;20203;-85
2021/06/12 01:23:55;;;;;;;7.55;6.65;;;17.40;79.90;;;17.18;65.12;95125.94;4979682;28;20695;-84
2021/06/12 01:27:02;;;;;;;9.50;7.32;;;17.40;79.90;;;17.17;65.66;95122.47;4957472;28;20218;-85
2021/06/12 01:30:08;;;;;;;7.75;7.05;;;17.40;79.90;;;17.15;65.26;95126.38;4766525;29;20244;-86
2021/06/12 01:35:28;;;;;;;7.38;6.68;;;17.40;79.90;;;17.14;65.10;95117.63;5130298;27;20401;-86
2021/06/12 01:37:59;;;;;;;7.60;6.90;;;17.40;79.90;;;17.14;65.03;95114.97;5064992;28;20213;-85
2021/06/12 01:40:31;;;;;;;7.65;6.90;;;17.40;79.90;;;17.17;65.30;95119.00;5089160;28;20215;-85
2021/06/12 01:43:00;;;;;;;7.80;7.10;;;17.40;79.90;;;17.17;65.34;95121.66;4977264;28;20210;-85
2021/06/12 01:45:27;;;;;;;7.97;7.13;;;17.40;79.90;;;17.14;65.30;95112.34;4977348;28;20283;-85
2021/06/12 01:47:55;;;;;;;7.55;6.75;;;17.40;79.90;;;17.15;65.56;95119.25;4949745;28;20206;-85
2021/06/12 01:50:24;;;;;;;7.68;6.97;;;17.40;79.90;;;17.14;65.28;95107.03;4843805;29;20217;-86
2021/06/12 01:55:13;;;;;;;9.00;7.10;;;17.40;79.90;;;17.16;65.03;95112.09;5112533;27;20671;-86
2021/06/12 01:57:42;;;;;;;9.30;7.05;;;17.40;79.90;;;17.16;65.53;95117.41;5062738;28;20232;-85
2021/06/12 02:00:11;;;;;;;7.68;6.90;;;17.40;79.90;;;17.13;65.06;95106.22;5077494;28;20286;-85
2021/06/12 02:02:43;;;;;;;7.97;7.28;;;17.40;79.90;;;17.10;65.04;95108.50;5024323;28;20236;-86
2021/06/12 02:05:19;;;;;;;7.10;6.45;;;17.40;79.90;;;17.07;65.44;95099.16;5007703;28;20277;-86
2021/06/12 02:07:47;;;;;;;7.55;6.90;;;17.40;79.90;;;17.07;65.23;95101.03;4976604;28;20260;-85
2021/06/12 02:10:29;;;;;;;8.02;7.22;;;17.30;79.80;;;17.09;65.23;95109.56;4935233;28;20217;-88
2021/06/12 02:15:10;;;;;;;7.43;6.82;;;17.30;79.80;;;17.00;65.17;95103.75;5130016;27;20696;-84
2021/06/12 02:17:39;;;;;;;7.53;6.80;;;17.30;79.80;;;16.98;65.58;95097.91;5072221;28;20447;-84
2021/06/12 02:20:10;;;;;;;8.90;6.50;;;17.30;79.80;;;16.94;65.07;95097.56;5073765;28;20240;-85
2021/06/12 02:22:43;;;;;;;7.32;6.70;;;17.30;79.80;;;16.94;65.73;95104.66;5049361;28;20261;-85
2021/06/12 02:25:11;;;;;;;7.78;7.05;;;17.20;80.50;;;16.91;65.28;95099.81;4990978;28;20283;-85
2021/06/12 02:27:43;;;;;;;8.45;7.65;;;17.20;79.70;;;16.86;65.43;95097.84;4932174;28;20217;-85
2021/06/12 02:30:11;;;;;;;7.95;7.15;;;17.20;79.80;;;16.88;65.00;95100.25;4801207;29;20728;-85
2021/06/12 02:34:50;;;;;;;8.23;7.30;;;17.20;79.80;;;16.82;65.58;95099.34;5133501;27;21168;-86
2021/06/12 02:37:17;;;;;;;8.70;8.00;;;17.10;79.80;;;16.77;65.68;95091.22;5088859;28;20197;-85
2021/06/12 02:39:43;;;;;;;7.82;7.20;;;17.10;79.70;;;16.78;65.91;95093.69;5085023;28;20222;-86
2021/06/12 02:42:10;;;;;;;8.18;7.45;;;17.10;79.80;;;16.78;65.29;95087.56;5043987;28;20199;-86
2021/06/12 02:44:37;;;;;;;8.15;7.43;;;17.00;79.80;;;16.74;65.93;95094.34;4972596;28;20313;-86
2021/06/12 02:47:09;;;;;;;7.70;6.90;;;17.10;79.90;;;16.76;65.98;95097.56;4912410;29;20219;-85
2021/06/12 02:49:39;;;;;;;7.80;7.10;;;17.00;80.00;;;16.76;65.71;95094.91;4754575;29;20331;-86
2021/06/12 02:52:34;;;;;;;7.20;6.50;;;17.00;79.90;;;16.70;65.80;95086.06;5150231;27;20971;-85
2021/06/12 02:55:07;;;;;;;7.57;6.88;;;17.00;79.90;;;16.69;65.39;95075.69;5061607;28;20235;-85
2021/06/12 02:57:37;;;;;;;7.53;6.82;;;17.00;80.00;;;16.67;65.67;95081.19;5032846;28;20211;-85
2021/06/12 03:00:07;;;;;;;7.30;6.60;;;16.90;79.80;;;16.66;65.82;95087.50;4997196;28;20221;-86
2021/06/12 03:02:37;;;;;;;8.80;8.00;;;16.90;80.00;;;16.67;65.96;95099.72;5001740;28;20202;-85
2021/06/12 03:05:10;;;;;;;7.88;7.18;;;17.00;80.10;;;16.68;65.65;95097.91;4904624;29;20754;-86
2021/06/12 03:07:38;;;;;;;8.32;7.50;;;16.90;80.00;;;16.64;65.64;95095.69;4801604;29;20228;-84
2021/06/12 03:12:31;;;;;;;8.50;7.70;;;17.00;80.20;;;16.68;65.59;95095.25;5150298;27;20393;-86
2021/06/12 03:14:59;;;;;;;7.32;6.63;;;17.00;80.30;;;16.64;65.88;95093.03;5090482;28;20682;-85
2021/06/12 03:17:28;;;;;;;9.18;7.35;;;16.90;80.30;;;16.69;65.74;95110.91;5087569;28;20201;-85
2021/06/12 03:19:57;;;;;;;8.60;7.82;;;16.80;80.10;;;16.68;65.87;95106.66;5000054;28;20229;-85
2021/06/12 03:22:24;;;;;;;8.65;7.85;;;16.90;80.40;;;16.72;65.84;95105.19;4934382;28;20378;-86
2021/06/12 03:24:52;;;;;;;8.07;7.03;;;16.90;80.50;;;16.72;65.95;95107.81;4885816;29;20700;-86
2021/06/12 03:27:20;;;;;;;8.57;7.68;;;16.90;80.60;;;16.74;65.78;95102.28;4855635;29;20226;-86
2021/06/12 03:30:14;;;;;;;8.90;8.07;;;16.90;80.60;;;16.80;65.77;95109.34;5113142;27;20657;-85
2021/06/12 03:32:41;;;;;;;8.10;7.40;;;17.00;80.70;;;16.77;66.44;95110.59;5072865;28;20206;-85
2021/06/12 03:35:09;;;;;;;9.50;8.02;;;16.90;80.70;;;16.85;66.14;95111.31;5066941;28;20232;-85
2021/06/12 03:37:39;;;;;;;8.20;7.40;;;17.00;80.70;;;16.86;65.96;95105.78;5066629;28;20214;-84
2021/06/12 03:40:08;;;;;;;8.10;7.40;;;17.00;80.70;;;16.87;65.83;95106.56;5028587;28;20850;-85
2021/06/12 03:42:37;;;;;;;8.05;7.35;;;17.00;80.60;;;16.93;65.79;95113.66;5004346;28;20312;-86
2021/06/12 03:45:09;;;;;;;8.50;7.70;;;17.10;80.70;;;16.95;65.73;95108.94;4956345;28;20233;-85
2021/06/12 03:47:58;;;;;;;8.32;7.53;;;17.10;80.80;;;16.98;65.96;95108.50;5140547;27;20618;-85
2021/06/12 03:50:27;;;;;;;8.48;7.68;;;17.10;80.60;;;17.01;65.84;95113.34;5078332;28;20268;-86
2021/06/12 03:52:54;;;;;;;8.43;7.63;;;17.10;80.70;;;17.04;65.88;95112.06;5053262;28;20209;-85
2021/06/12 03:55:21;;;;;;;9.13;8.23;;;17.20;80.70;;;17.07;65.43;95106.31;5058237;28;20661;-85
2021/06/12 03:57:49;;;;;;;7.95;7.25;;;17.20;80.70;;;17.16;65.21;95115.53;4951693;28;20202;-84
2021/06/12 04:00:17;;;;;;;7.70;7.00;;;17.20;80.70;;;17.19;65.48;95111.66;4931185;28;20223;-86
2021/06/12 04:02:49;;;;;;;7.78;7.18;;;17.20;80.60;;;17.24;65.37;95117.06;4911364;29;20219;-85
2021/06/12 04:05:38;;;;;;;7.50;6.80;;;17.30;80.60;;;17.32;65.05;95107.97;5142413;27;20636;-85
2021/06/12 04:08:05;;;;;;;8.13;7.32;;;17.40;80.70;;;17.36;65.48;95115.25;5118127;28;20205;-86
2021/06/12 04:10:32;;;;;;;10.32;8.05;;;17.50;80.70;;;17.40;65.32;95121.69;5090467;28;20224;-86
2021/06/12 04:12:59;;;;;;;8.35;7.65;;;17.40;80.60;;;17.44;65.17;95114.09;5085129;28;20197;-86
2021/06/12 04:15:28;;;;;;;8.40;7.60;;;17.50;80.60;;;17.46;65.26;95113.88;5072010;28;20199;-86
2021/06/12 04:18:07;;;;;;;8.20;7.50;;;17.50;80.60;;;17.55;65.22;95125.72;4950579;28;20211;-85
2021/06/12 04:20:37;;;;;;;8.18;7.38;;;17.50;80.40;;;17.58;64.61;95115.47;4865556;29;20209;-86
2021/06/12 04:25:36;;;;;;;8.52;7.72;;;17.60;80.50;;;17.74;64.49;95118.47;5150874;27;20638;-87
2021/06/12 04:28:04;;;;;;;7.85;7.15;;;17.70;80.40;;;17.77;64.23;95116.16;5094834;28;20631;-87
2021/06/12 04:30:31;;;;;;;8.00;7.10;;;17.80;80.20;;;17.81;64.71;95113.84;5067037;28;20209;-87
2021/06/12 04:33:00;;;;;;;7.82;7.13;;;17.80;80.10;;;17.86;64.48;95113.16;5072442;28;20206;-86
2021/06/12 04:35:28;;;;;;;8.35;7.55;;;17.80;80.10;;;17.87;64.43;95118.25;5109055;28;20225;-86
2021/06/12 04:37:59;;;;;;;8.45;7.65;;;18.00;80.30;;;17.85;64.21;95106.25;5068359;28;20204;-87
2021/06/12 04:40:29;;;;;;;8.50;7.70;;;17.90;80.20;;;17.92;64.10;95115.69;4978312;28;20214;-88
2021/06/12 04:43:17;;;;;;;8.07;7.38;;;18.00;80.30;;;17.96;63.87;95112.59;5132209;27;20660;-86
2021/06/12 04:45:44;;;;;;;8.10;7.38;;;18.10;80.30;;;18.00;63.98;95108.44;5080722;28;20205;-87
2021/06/12 04:48:11;;;;;;;7.93;7.22;;;18.10;80.30;;;18.06;63.90;95118.91;5072419;28;20275;-86
2021/06/12 04:50:39;;;;;;;7.82;7.13;;;18.10;80.30;;;18.15;63.68;95123.88;5065830;28;20207;-87
2021/06/12 04:53:09;;;;;;;7.47;6.68;;;18.10;80.30;;;18.17;63.68;95113.84;5024464;28;20229;-86
2021/06/12 04:55:37;;;;;;;7.65;6.95;;;18.20;80.40;;;18.24;63.56;95109.19;4993092;28;20557;-87
2021/06/12 04:58:07;;;;;;;8.27;7.57;;;18.20;80.40;;;18.37;63.48;95110.75;4906415;29;20216;-87
2021/06/12 05:01:00;;;;;;;8.45;7.65;;;18.30;80.20;;;18.39;63.46;95111.34;5151442;27;20788;-87
2021/06/12 05:03:27;;;;;;;7.20;6.60;;;18.40;80.10;;;18.46;63.47;95105.91;5083622;28;20319;-86
2021/06/12 05:05:54;;;;;;;7.97;7.28;;;18.50;81.00;;;18.53;63.44;95107.38;5081450;28;20221;-86
2021/06/12 05:08:21;;;;;;;7.57;6.80;;;18.50;80.10;;;18.60;63.33;95101.09;5026206;28;20257;-86
2021/06/12 05:10:48;;;;;;;8.07;7.38;;;18.50;80.20;;;18.69;63.28;95100.47;5004078;28;20205;-86
2021/06/12 05:13:16;;;;;;;7.97;7.18;;;18.60;80.20;;;18.73;63.32;95101.59;4897412;28;20241;-86
2021/06/12 05:15:42;;;;;;;9.40;7.57;;;18.60;80.00;;;18.83;63.18;95100.19;4827355;29;20657;-86
2021/06/12 05:20:48;;;;;;;8.30;7.60;;;18.70;79.90;;;18.96;62.67;95110.56;5151189;27;20616;-86
2021/06/12 05:23:15;;;;;;;7.63;6.97;;;18.80;79.70;;;19.01;62.63;95099.19;5110581;27;20264;-85
2021/06/12 05:25:43;;;;;;;8.13;7.43;;;18.90;79.90;;;19.12;62.97;95098.31;5090796;28;20927;-85
2021/06/12 05:28:10;;;;;;;8.30;7.60;;;19.00;79.80;;;19.17;62.75;95103.72;5065329;28;20601;-85
2021/06/12 05:30:36;;;;;;;8.20;7.50;;;19.10;79.70;;;19.24;62.39;95095.59;4978009;28;20682;-86
2021/06/12 05:33:03;;;;;;;7.35;6.55;;;19.10;79.60;;;19.33;62.85;95093.31;4951133;28;20202;-84
2021/06/12 05:35:30;;;;;;;7.95;7.25;;;19.20;79.80;;;19.39;62.42;95092.34;4903795;29;20200;-85
2021/06/12 05:40:34;;;;;;;8.18;7.47;;;19.20;79.50;;;19.54;62.64;95083.78;5138631;27;20644;-84
2021/06/12 05:43:01;;;;;;;8.02;7.32;;;19.40;79.70;;;19.62;62.53;95086.03;5083256;28;20289;-85
2021/06/12 05:45:28;;;;;;;8.52;7.78;;;19.40;79.70;;;19.71;62.49;95082.97;5065569;28;20238;-85
2021/06/12 05:47:54;;;;;;;7.80;7.00;;;19.50;79.70;;;19.80;62.39;95071.66;5063532;28;20205;-84
2021/06/12 05:50:22;;;;;;;8.20;7.40;;;19.60;79.80;;;19.89;62.26;95066.75;5078735;28;20710;-85
2021/06/12 05:52:49;;;;;;;7.68;7.03;;;19.60;80.70;;;19.99;62.59;95068.72;4955741;28;20215;-84
2021/06/12 05:55:16;;;;;;;7.43;6.82;;;19.70;79.90;;;20.09;62.24;95065.38;4856460;29;20655;-85
2021/06/12 05:57:43;;;;;;;11.18;7.28;;;19.80;79.90;;;20.18;62.58;95068.41;4718297;29;22477;-85
2021/06/12 06:00:22;;;;;;;8.07;7.30;;;19.90;79.90;;;20.25;62.31;95064.53;5149918;27;20855;-86
2021/06/12 06:02:49;;;;;;;7.40;6.70;;;20.00;79.70;;;20.36;62.35;95067.28;5112867;27;20234;-85
2021/06/12 06:05:16;;;;;;;8.02;7.28;;;20.10;79.80;;;20.44;62.29;95080.16;5067804;28;20253;-86
2021/06/12 06:07:42;;;;;;;7.85;7.10;;;20.20;79.90;;;20.53;61.95;95069.88;5065670;28;20214;-85
2021/06/12 06:10:10;;;;;;;8.98;7.53;;;20.20;79.80;;;20.59;61.94;95072.34;5042716;28;20227;-85
2021/06/12 06:12:37;;;;;;;7.88;7.18;;;20.30;79.60;;;20.69;61.80;95076.97;4987935;28;20205;-84
2021/06/12 06:15:05;;;;;;;7.85;7.15;;;20.40;79.80;;;20.79;62.31;95074.44;4966685;28;20246;-85
2021/06/12 06:17:32;;;;;;;7.78;6.97;;;20.50;79.80;;;20.86;62.14;95082.22;4869016;28;20215;-85
2021/06/12 06:20:12;;;;;;;8.50;7.80;;;20.60;79.90;;;20.93;61.49;95074.84;5130185;27;20315;-85
2021/06/12 06:22:40;;;;;;;8.45;7.75;;;20.60;79.10;;;21.01;60.69;95078.09;5099254;28;20212;-85
2021/06/12 06:25:07;;;;;;;8.02;7.32;;;20.70;78.90;;;21.10;60.85;95084.56;5079282;28;20767;-85
2021/06/12 06:27:35;;;;;;;7.47;6.78;;;20.80;78.70;;;21.17;60.61;95076.34;5029757;28;20220;-84
2021/06/12 06:30:04;;;;;;;8.55;7.75;;;20.80;78.70;;;21.19;60.57;95083.03;4990636;28;20232;-84
2021/06/12 06:32:31;;;;;;;8.52;7.82;;;20.90;78.80;;;21.28;60.54;95086.84;4984256;28;20221;-85
2021/06/12 06:34:59;;;;;;;8.70;7.90;;;21.00;78.70;;;21.36;60.27;95080.25;4878537;28;20246;-86
2021/06/12 06:40:07;;;;;;;7.72;7.03;;;21.10;78.40;;;21.47;59.45;95078.44;5130377;27;20587;-82
2021/06/12 06:42:34;;;;;;;8.25;7.38;;;21.20;77.60;;;21.53;59.86;95081.94;5101787;28;20256;-81
2021/06/12 06:45:03;;;;;;;7.78;7.07;;;21.30;77.80;;;21.62;59.83;95083.09;5108806;28;20224;-82
2021/06/12 06:47:30;;;;;;;8.00;7.30;;;21.30;77.80;;;21.70;59.95;95082.63;5061777;28;21273;-81
2021/06/12 06:49:56;;;;;;;8.10;7.38;;;21.40;78.10;;;21.79;59.89;95082.13;4984597;28;20226;-82
2021/06/12 06:52:23;;;;;;;7.20;6.60;;;21.50;78.10;;;21.88;59.98;95089.38;4948809;28;20230;-81
2021/06/12 06:54:50;;;;;;;8.02;7.22;;;21.50;78.20;;;22.00;59.83;95094.53;4834111;29;20225;-82
2021/06/12 06:57:16;;;;;;;12.35;7.18;;;21.60;78.10;;;22.10;59.42;95093.78;4617523;30;20289;-82
2021/06/12 06:59:55;;;;;;;8.98;8.20;;;21.70;78.80;;;22.13;58.76;95090.59;5132103;27;20325;-81
2021/06/12 07:02:23;;;;;;;8.35;7.63;;;21.80;77.30;;;22.19;59.01;95086.06;5082909;28;20198;-81
2021/06/12 07:04:49;;;;;;;7.68;7.03;;;21.80;77.50;;;22.31;59.61;95091.19;5081139;28;20590;-83
2021/06/12 07:07:16;;;;;;;8.40;7.70;;;21.90;77.80;;;22.42;59.06;95102.75;5037926;28;20576;-82
2021/06/12 07:09:42;;;;;;;8.05;7.13;;;22.00;77.40;;;22.46;58.35;95093.97;5081077;28;20213;-81
2021/06/12 07:12:10;;;;;;;8.93;8.10;;;22.10;77.10;;;22.52;57.85;95094.75;4950335;28;20213;-82
2021/06/12 07:14:39;;;;;;;9.43;7.78;;;22.20;76.60;;;22.54;57.80;95087.28;4852273;29;20334;-82
2021/06/12 07:17:05;;;;;;;8.27;7.57;;;22.20;76.60;;;22.68;58.61;95107.13;4824375;29;20216;-82
2021/06/12 07:21:22;;;;;;;7.38;6.63;;;22.30;77.00;;;22.86;58.27;95099.66;5144247;27;21148;-81
2021/06/12 07:23:49;;;;;;;8.43;7.72;;;22.40;77.30;;;22.95;58.17;95091.91;5111654;27;20271;-82
2021/06/12 07:26:16;;;;;;;7.72;7.05;;;22.50;76.80;;;23.11;57.75;95098.09;5083691;28;20220;-81
2021/06/12 07:28:42;;;;;;;8.27;7.57;;;22.60;76.90;;;23.28;58.06;95104.00;5077612;28;20224;-83
2021/06/12 07:31:18;;;;;;;8.25;7.45;;;22.70;77.20;;;23.42;57.88;95090.88;5063805;28;20292;-84
2021/06/12 07:33:45;;;;;;;8.13;7.40;;;22.90;77.00;;;23.56;57.24;95084.97;5026715;28;20326;-84
2021/06/12 07:36:12;;;;;;;7.57;6.95;;;23.00;76.80;;;23.70;57.67;95087.91;4951902;28;20615;-85
2021/06/12 07:39:05;;;;;;;6.82;6.32;;;23.10;77.00;;;23.85;57.11;95098.56;5133237;27;21166;-84
2021/06/12 07:41:33;;;;;;;7.68;6.90;;;23.30;76.90;;;23.94;56.90;95090.84;5084695;28;20792;-84
2021/06/12 07:44:00;;;;;;;7.75;6.80;;;23.40;76.50;;;24.03;57.20;95085.72;5108560;28;20224;-84
2021/06/12 07:46:48;;;;;;;8.02;7.43;;;23.50;76.30;;;24.19;57.04;95089.94;5064451;28;20242;-83
2021/06/12 07:49:15;;;;;;;7.97;7.22;;;23.70;76.30;;;24.25;57.00;95075.44;5025542;28;20393;-84
2021/06/12 07:51:43;;;;;;;7.20;6.60;;;23.80;76.20;;;24.38;56.53;95078.63;4982615;28;20214;-84
2021/06/12 07:54:11;;;;;;;7.28;6.60;;;23.90;75.90;;;24.54;56.08;95080.16;4879146;29;20241;-84
2021/06/12 07:56:56;;;;;;;7.13;6.53;;;24.00;75.80;;;24.62;55.61;95074.19;5149529;27;20571;-85
2021/06/12 07:59:23;;;;;;;7.40;6.80;;;24.10;75.30;;;24.69;55.76;95076.59;5080215;28;20218;-83
2021/06/12 08:01:50;;;;;;;7.00;6.40;;;24.20;75.30;;;24.81;55.98;95076.25;5038317;28;20277;-84
2021/06/12 08:04:17;;;;;;;7.15;6.55;;;24.20;75.20;;;24.92;56.38;95075.09;5009466;28;20224;-85
2021/06/12 08:06:43;;;;;;;7.75;7.05;;;24.40;75.50;;;25.04;54.90;95074.75;4941741;28;20231;-85
2021/06/12 08:09:11;;;;;;;7.43;6.82;;;24.40;74.70;;;25.14;54.95;95073.88;4862418;29;20584;-85
2021/06/12 08:11:38;;;;;;;6.85;6.30;;;24.50;75.60;;;25.24;55.26;95073.00;4778979;29;20218;-86
2021/06/12 08:16:42;;;;;;;7.18;6.57;;;24.70;75.00;;;25.47;54.90;95068.00;5137742;27;20644;-85
2021/06/12 08:19:09;;;;;;;6.82;6.22;;;24.90;74.30;;;25.57;54.79;95065.22;5108728;28;20261;-84
2021/06/12 08:21:36;;;;;;;7.30;6.70;;;24.90;74.20;;;25.67;54.77;95059.75;5106876;28;20376;-85
2021/06/12 08:24:04;;;;;;;7.55;6.82;;;25.10;74.00;;;25.75;53.81;95063.72;5101604;28;20214;-86
2021/06/12 08:26:31;;;;;;;8.70;7.90;;;25.20;73.30;;;25.77;52.36;95064.22;5059547;28;20211;-86
2021/06/12 08:28:58;;;;;;;7.70;6.95;;;25.30;72.40;;;25.67;51.43;95067.00;4978947;28;20230;-86
2021/06/12 08:31:25;;;;;;;7.88;7.18;;;25.30;71.60;;;25.56;51.76;95055.56;4958067;28;20207;-85
2021/06/12 08:36:39;;;;;;;7.82;7.13;;;25.30;71.40;;;25.41;51.48;95060.00;5150650;27;20649;-85
2021/06/12 08:39:07;;;;;;;6.95;6.38;;;25.20;71.00;;;25.41;52.66;95067.25;5088062;28;20298;-84
2021/06/12 08:41:34;;;;;;;7.07;6.47;;;25.20;71.90;;;25.45;52.25;95051.38;5075836;28;20220;-86
2021/06/12 08:44:01;;;;;;;7.05;6.45;;;25.20;71.70;;;25.46;52.33;95059.13;5001253;28;20241;-85
2021/06/12 08:46:29;;;;;;;9.75;7.18;;;25.20;71.40;;;25.47;51.53;95060.75;4979254;28;20222;-87
2021/06/12 08:48:57;;;;;;;7.80;7.10;;;25.10;71.10;;;25.46;51.34;95059.13;4927978;28;20232;-84
2021/06/12 08:51:24;;;;;;;6.60;6.00;;;25.20;71.20;;;25.53;52.62;95062.28;4860709;29;20241;-85
2021/06/12 08:56:35;;;;;;;8.30;7.47;;;25.20;72.00;;;25.74;52.43;95056.72;5150892;27;20952;-85
2021/06/12 08:59:02;;;;;;;8.35;7.63;;;25.20;72.10;;;25.81;51.41;95051.81;5104458;28;20237;-85
2021/06/12 09:01:29;;;;;;;8.32;7.53;;;25.20;71.50;;;25.95;52.17;95053.81;5099097;28;20271;-85
2021/06/12 09:03:56;;;;;;;8.73;8.02;;;25.40;72.20;;;25.96;51.75;95040.09;5095435;28;20236;-85
2021/06/12 09:06:22;;;;;;;7.90;7.30;;;25.50;71.70;;;25.98;50.96;95048.69;5040922;28;20208;-85
2021/06/12 09:09:00;;;;;;;8.05;7.43;;;25.50;70.80;;;25.96;50.98;95056.22;4981760;28;20693;-85
2021/06/12 09:11:32;;;;;;;8.27;7.57;;;25.50;70.90;;;25.95;51.97;95051.94;4966779;28;20214;-86
2021/06/12 09:14:10;;;;;;;8.00;7.38;;;25.60;72.10;;;25.98;51.15;95053.25;5138490;27;20696;-85
2021/06/12 09:16:40;;;;;;;9.20;7.30;;;25.60;71.00;;;26.07;51.89;95054.25;5085719;28;20253;-84
2021/06/12 09:19:20;;;;;;;7.97;7.22;;;25.60;71.40;;;26.17;52.53;95038.00;5069553;28;20228;-85
2021/06/12 09:21:59;;;;;;;7.40;6.80;;;25.60;71.30;;;26.31;52.25;95048.06;5065883;28;20315;-85
2021/06/12 09:24:42;;;;;;;7.35;6.75;;;25.70;71.30;;;26.44;51.94;95036.59;4978819;28;20238;-85
2021/06/12 09:27:17;;;;;;;7.45;6.85;;;25.80;71.20;;;26.60;52.41;95037.16;4876872;29;20210;-86
2021/06/12 09:29:50;;;;;;;8.82;7.97;;;25.90;72.10;;;26.72;50.44;95033.25;4772500;29;20240;-85
2021/06/12 09:34:23;;;;;;;7.40;6.80;;;26.00;70.60;;;27.02;51.46;95031.22;5139842;27;20645;-86
2021/06/12 09:36:51;;;;;;;8.80;7.90;;;26.20;71.30;;;27.16;48.00;95048.22;5125139;28;20293;-85
2021/06/12 09:39:23;;;;;;;8.73;7.85;;;26.40;69.40;;;27.24;48.56;95030.59;5086188;28;20223;-86
2021/06/12 09:41:55;;;;;;;8.98;8.18;;;26.50;68.30;;;27.31;48.33;95031.78;5023409;28;20262;-86
2021/06/12 09:44:52;;;;;;;8.73;7.82;;;26.60;68.80;;;27.35;47.09;95040.06;4939129;28;20341;-83
2021/06/12 09:47:23;;;;;;;7.57;6.88;;;26.70;68.40;;;27.48;49.17;95025.09;4890978;29;20781;-85
2021/06/12 09:49:51;;;;;;;7.78;7.10;;;26.80;69.00;;;27.64;48.97;95023.69;4873495;29;20272;-85
2021/06/12 09:52:48;;;;;;;7.43;6.72;;;26.90;69.40;;;27.85;48.86;95027.91;5150258;27;20562;-85
2021/06/12 09:55:41;;;;;;;7.60;6.38;;;27.10;68.60;;;28.04;49.29;95015.13;5062743;28;20241;-85
2021/06/12 09:58:08;;;;;;;6.93;6.32;;;27.20;69.30;;;28.22;48.65;95018.84;5026816;28;20211;-85
2021/06/12 10:00:44;;;;;;;6.45;5.95;;;27.30;68.80;;;28.36;47.86;95007.22;5006958;28;20240;-85
2021/06/12 10:03:32;;;;;;;6.95;6.35;;;27.50;68.40;;;28.40;47.55;95008.22;4972294;28;20256;-83
2021/06/12 10:06:23;;;;;;;6.35;5.85;;;27.70;68.10;;;28.48;47.47;95009.38;4901222;29;20311;-85
2021/06/12 10:08:52;;;;;;;6.20;5.70;;;27.80;68.40;;;28.56;47.29;95006.78;4493397;30;20259;-86
2021/06/12 10:13:10;;;;;;;6.22;5.70;;;27.80;67.60;;;28.67;44.19;94998.44;5130023;27;20671;-86
2021/06/12 10:15:37;;;;;;;5.90;5.45;;;28.00;65.80;;;28.69;45.80;94986.25;5063093;28;20564;-85
2021/06/12 10:18:04;;;;;;;5.63;5.15;;;28.10;66.40;;;28.69;45.90;94996.28;5086588;28;20756;-86
2021/06/12 10:20:31;;;;;;;5.22;4.72;;;28.10;66.30;;;28.68;46.67;94992.75;5024656;28;20261;-85
2021/06/12 10:23:01;;;;;;;6.03;5.53;;;28.10;66.50;;;28.72;45.10;94990.25;4955701;28;20217;-86
2021/06/12 10:25:28;;;;;;;5.60;5.13;;;28.20;65.90;;;28.77;45.05;94989.34;4892325;29;20205;-85
2021/06/12 10:27:55;;;;;;;5.35;4.95;;;28.20;65.60;;;28.85;45.85;94986.69;4911353;29;20682;-85
2021/06/12 10:30:25;;;;;;;5.35;4.95;;;28.20;65.70;;;28.98;46.47;94989.63;4764652;29;20249;-85
2021/06/12 10:33:06;;;;;;;5.47;4.80;;;28.30;66.50;;;29.13;44.93;94988.47;5140470;27;20644;-85
2021/06/12 10:35:33;;;;;;;5.15;4.25;;;28.30;65.60;;;29.23;45.63;94978.22;5071808;28;20329;-85
2021/06/12 10:38:14;;;;;;;4.78;4.10;;;28.40;65.50;;;29.29;43.63;94976.16;5070425;28;20560;-84
2021/06/12 10:40:50;;;;;;;4.35;3.95;;;28.50;64.20;;;29.22;41.92;94973.91;4963771;28;20204;-85
2021/06/12 10:43:27;;;;;;;4.50;4.10;;;28.60;62.90;;;29.11;41.81;94963.69;4943976;28;20274;-84
2021/06/12 10:46:07;;;;;;;3.80;3.50;;;28.60;62.70;;;29.05;41.36;94961.09;4912897;29;20235;-85
2021/06/12 10:48:36;;;;;;;3.83;3.50;;;28.60;62.80;;;29.06;40.82;94962.72;4829688;29;20238;-85
2021/06/12 10:53:18;;;;;;;3.25;3.05;;;28.60;62.20;;;29.17;42.64;94962.44;5139510;27;20640;-85
2021/06/12 10:55:55;;;;;;;3.53;3.22;;;28.60;63.30;;;29.23;41.75;94953.91;5085042;28;20549;-86
2021/06/12 10:58:32;;;;;;;3.67;3.28;;;28.60;62.60;;;29.37;42.34;94961.94;5017360;28;20223;-85
2021/06/12 11:01:20;;;;;;;3.20;3.00;;;28.70;63.30;;;29.46;41.06;94950.38;4985554;28;20212;-85
2021/06/12 11:04:15;;;;;;;3.50;3.20;;;28.80;62.90;;;29.58;39.57;94944.38;4870730;29;20279;-85
2021/06/12 11:06:54;;;;;;;3.30;3.00;;;28.90;62.30;;;29.62;41.28;94948.06;4795478;29;22634;-85
2021/06/12 11:09:34;;;;;;;3.33;3.13;;;28.90;61.90;;;29.63;40.42;94945.03;4644681;30;20314;-85
2021/06/12 11:12:14;;;;;;;3.03;2.83;;;29.00;62.50;;;29.70;40.27;94950.78;5149493;27;20769;-85
2021/06/12 11:15:05;;;;;;;3.65;3.35;;;29.00;60.70;;;29.78;40.51;94937.59;5106317;28;20248;-85
2021/06/12 11:17:32;;;;;;;2.95;2.72;;;29.00;61.70;;;29.82;38.26;94927.75;5049216;28;20291;-85
2021/06/12 11:20:23;;;;;;;3.38;3.08;;;29.10;59.80;;;29.87;38.35;94924.91;5023424;28;20286;-85
2021/06/12 11:23:01;;;;;;;3.03;2.83;;;29.20;60.10;;;29.99;39.23;94914.31;4958471;28;20214;-85